Time;durP1;ratioP1;P1;durP2;ratioP2;P2;SDS_P1;SDS_P2;PMS_P1;PMS_P2;Temp;Humidity;BMP_temperature;BMP_pressure;BME280_temperature;BME280_humidity;BME280_pressure;Samples;Min_cycle;Max_cycle;Signal;HPM_P1;HPM_P2
2021/12/18 00:01:46;;;;;;;21.75;1.30;;;;;;;;;;4934967;29;20591;-84
2021/12/18 00:04:12;;;;;;;17.92;1.75;;;;;;;;;;4957472;28;20034;-84
2021/12/18 00:06:38;;;;;;;19.88;1.77;;;;;;;;;;4965786;28;20122;-83
2021/12/18 00:09:05;;;;;;;6.10;1.67;;;;;;;;;;4950580;28;20055;-84
2021/12/18 00:11:31;;;;;;;5.65;1.30;;;;;;;;;;4913609;29;20500;-84
2021/12/18 00:13:57;;;;;;;5.82;1.20;;;;;;;;;;4914297;29;20086;-84
2021/12/18 00:16:23;;;;;;;16.42;1.50;;;;;;;;;;4916629;29;20063;-84
2021/12/18 00:18:52;;;;;;;10.00;1.40;;;;;;;;;;4927982;29;20094;-84
2021/12/18 00:21:19;;;;;;;3.33;1.00;;;;;;;;;;4921217;29;20051;-83
2021/12/18 00:23:46;;;;;;;3.80;1.25;;;;;;;;;;4914212;29;20412;-83
2021/12/18 00:26:12;;;;;;;9.35;1.20;;;;;;;;;;4944619;29;20113;-83
2021/12/18 00:28:38;;;;;;;13.18;1.23;;;;;;;;;;4912079;29;20066;-84
2021/12/18 00:31:04;;;;;;;7.63;1.40;;;;;;;;;;4915867;29;20388;-83
2021/12/18 00:33:31;;;;;;;9.07;1.23;;;;;;;;;;4944135;29;20401;-83
2021/12/18 00:35:57;;;;;;;5.03;1.35;;;;;;;;;;4933016;29;20102;-83
2021/12/18 00:38:28;;;;;;;2.97;1.10;;;;;;;;;;4930240;29;20405;-84
2021/12/18 00:44:03;;;;;;;2.65;1.40;;;;;;;;;;4904395;29;20052;-84
2021/12/18 00:46:40;;;;;;;8.85;1.80;;;;;;;;;;4911956;29;20079;-84
2021/12/18 00:49:07;;;;;;;8.20;1.80;;;;;;;;;;4945321;29;20504;-84
2021/12/18 00:51:33;;;;;;;6.03;1.90;;;;;;;;;;4932415;29;20039;-83
2021/12/18 00:53:59;;;;;;;9.77;2.05;;;;;;;;;;4930318;29;20504;-84
2021/12/18 00:56:25;;;;;;;7.07;2.08;;;;;;;;;;4898065;29;20142;-84
2021/12/18 00:58:52;;;;;;;7.10;2.13;;;;;;;;;;4912572;29;20032;-83
2021/12/18 01:01:22;;;;;;;12.30;2.50;;;;;;;;;;4944650;29;20035;-83
2021/12/18 01:03:49;;;;;;;38.58;2.45;;;;;;;;;;4930643;29;20411;-84
2021/12/18 01:06:16;;;;;;;14.75;2.10;;;;;;;;;;4913782;29;20102;-84
2021/12/18 01:08:42;;;;;;;27.98;3.17;;;;;;;;;;4943116;28;20106;-84
2021/12/18 01:13:44;;;;;;;17.40;2.80;;;;;;;;;;4943950;29;20091;-84
2021/12/18 01:16:18;;;;;;;13.27;2.88;;;;;;;;;;4926750;29;20111;-84
2021/12/18 01:24:14;;;;;;;11.60;3.65;;;;;;;;;;4929984;29;20032;-84
2021/12/18 01:26:40;;;;;;;16.90;3.95;;;;;;;;;;4944647;29;20545;-85
2021/12/18 01:29:06;;;;;;;18.42;4.28;;;;;;;;;;4881159;29;20512;-84
2021/12/18 01:31:32;;;;;;;14.32;3.85;;;;;;;;;;4912498;29;20130;-84
2021/12/18 01:33:58;;;;;;;36.40;5.03;;;;;;;;;;4942630;29;20103;-84
2021/12/18 01:36:24;;;;;;;50.78;4.72;;;;;;;;;;4927076;29;20070;-85
2021/12/18 01:38:50;;;;;;;53.25;4.80;;;;;;;;;;4928990;29;20050;-84
2021/12/18 01:41:17;;;;;;;23.20;4.68;;;;;;;;;;4930933;29;20039;-84
2021/12/18 01:52:42;;;;;;;20.60;5.45;;;;;;;;;;4940247;29;20054;-84
2021/12/18 01:54:37;;;;;;;33.20;5.45;;;;;;;;;;4919420;29;20051;-84
2021/12/18 01:57:03;;;;;;;17.75;4.85;;;;;;;;;;4944629;29;20555;-84
2021/12/18 01:59:34;;;;;;;35.55;4.93;;;;;;;;;;4928994;29;20090;-84
2021/12/18 02:02:00;;;;;;;27.35;5.63;;;;;;;;;;4943538;29;20054;-84
2021/12/18 02:04:26;;;;;;;22.67;4.57;;;;;;;;;;4939932;29;20051;-84
2021/12/18 02:06:52;;;;;;;29.83;5.15;;;;;;;;;;4928962;29;20046;-85
2021/12/18 02:09:20;;;;;;;18.33;4.28;;;;;;;;;;4931276;28;20149;-84
2021/12/18 02:11:46;;;;;;;17.80;3.28;;;;;;;;;;4931413;29;20475;-83
2021/12/18 02:20:11;;;;;;;18.48;3.05;;;;;;;;;;4937230;28;20092;-85
2021/12/18 02:22:37;;;;;;;8.30;3.10;;;;;;;;;;4964043;28;20491;-84
2021/12/18 02:25:04;;;;;;;15.68;2.80;;;;;;;;;;4930751;29;20074;-85
2021/12/18 02:27:30;;;;;;;18.88;2.92;;;;;;;;;;4947222;29;20066;-84
2021/12/18 02:29:58;;;;;;;14.40;2.72;;;;;;;;;;4931064;29;20521;-83
2021/12/18 02:32:24;;;;;;;9.32;2.38;;;;;;;;;;4934340;29;20198;-84
2021/12/18 02:34:56;;;;;;;12.02;3.00;;;;;;;;;;4947528;28;20202;-84
2021/12/18 02:37:23;;;;;;;8.60;2.55;;;;;;;;;;4918088;29;20101;-84
2021/12/18 02:40:48;;;;;;;9.73;2.30;;;;;;;;;;4964697;28;20197;-83
2021/12/18 02:42:41;;;;;;;9.73;2.72;;;;;;;;;;4929710;29;20043;-84
2021/12/18 02:45:07;;;;;;;9.45;2.92;;;;;;;;;;4948052;28;20209;-84
2021/12/18 02:47:34;;;;;;;12.75;2.83;;;;;;;;;;4947571;29;20118;-85
2021/12/18 02:50:00;;;;;;;13.15;3.00;;;;;;;;;;4951971;28;20035;-84
2021/12/18 02:52:27;;;;;;;8.50;2.38;;;;;;;;;;4962390;28;20058;-84
2021/12/18 02:54:53;;;;;;;10.48;2.58;;;;;;;;;;4948631;28;20408;-84
2021/12/18 02:57:20;;;;;;;11.07;2.92;;;;;;;;;;4946957;29;20050;-84
2021/12/18 02:59:47;;;;;;;9.50;3.20;;;;;;;;;;4947268;28;20065;-83
2021/12/18 03:02:14;;;;;;;8.68;2.88;;;;;;;;;;4947433;28;20047;-84
2021/12/18 03:04:42;;;;;;;10.48;3.05;;;;;;;;;;4946529;28;20049;-84
2021/12/18 03:07:11;;;;;;;15.07;2.47;;;;;;;;;;4928840;29;20396;-83
2021/12/18 03:19:09;;;;;;;10.00;2.63;;;;;;;;;;4947368;28;20114;-84
2021/12/18 03:25:23;;;;;;;9.02;2.72;;;;;;;;;;4947023;28;20050;-85
2021/12/18 03:27:49;;;;;;;12.27;2.75;;;;;;;;;;4977663;28;20097;-84
2021/12/18 03:30:16;;;;;;;14.20;3.22;;;;;;;;;;4948216;28;20481;-84
2021/12/18 03:32:42;;;;;;;10.98;2.58;;;;;;;;;;4949697;28;20133;-85
2021/12/18 03:35:09;;;;;;;9.50;2.85;;;;;;;;;;4948277;28;20038;-85
2021/12/18 03:37:35;;;;;;;21.05;3.72;;;;;;;;;;4951692;28;20151;-84
2021/12/18 03:40:05;;;;;;;22.83;3.67;;;;;;;;;;4950361;28;20069;-85
2021/12/18 03:42:32;;;;;;;14.95;3.25;;;;;;;;;;4964649;28;20039;-84
2021/12/18 03:44:58;;;;;;;14.88;3.58;;;;;;;;;;4949287;28;20094;-83
2021/12/18 03:47:24;;;;;;;24.98;3.63;;;;;;;;;;4981402;28;20038;-84
2021/12/18 03:49:51;;;;;;;34.75;4.25;;;;;;;;;;4951468;28;20051;-84
2021/12/18 03:52:17;;;;;;;45.55;4.78;;;;;;;;;;4949668;28;20034;-84
2021/12/18 03:54:43;;;;;;;36.10;4.60;;;;;;;;;;4935149;29;20139;-84
2021/12/18 03:57:09;;;;;;;49.47;4.07;;;;;;;;;;4949118;29;20154;-84
2021/12/18 03:59:35;;;;;;;61.60;4.63;;;;;;;;;;4951272;28;20039;-84
2021/12/18 04:02:01;;;;;;;98.00;7.78;;;;;;;;;;4946932;28;20066;-83
2021/12/18 04:04:27;;;;;;;41.40;5.25;;;;;;;;;;4949852;29;20399;-84
2021/12/18 04:06:54;;;;;;;18.90;4.43;;;;;;;;;;4950207;28;20043;-84
2021/12/18 04:09:20;;;;;;;18.27;4.47;;;;;;;;;;4950773;28;20047;-83
2021/12/18 04:11:46;;;;;;;15.07;4.10;;;;;;;;;;4950495;28;20042;-84
2021/12/18 04:14:13;;;;;;;12.82;4.68;;;;;;;;;;4932422;29;20039;-84
2021/12/18 04:16:39;;;;;;;12.93;3.47;;;;;;;;;;4965349;28;20061;-83
2021/12/18 04:19:05;;;;;;;16.25;3.60;;;;;;;;;;4949389;29;20043;-84
2021/12/18 04:21:32;;;;;;;7.93;3.15;;;;;;;;;;4933751;29;20407;-84
2021/12/18 04:23:58;;;;;;;10.80;2.97;;;;;;;;;;4944900;28;20062;-83
2021/12/18 04:26:25;;;;;;;6.07;2.30;;;;;;;;;;4935601;29;20512;-83
2021/12/18 04:28:51;;;;;;;6.30;1.48;;;;;;;;;;4916530;29;20134;-84
2021/12/18 04:31:17;;;;;;;3.47;1.60;;;;;;;;;;4931651;29;20051;-83
2021/12/18 04:33:43;;;;;;;2.58;1.27;;;;;;;;;;4964470;28;20517;-83
2021/12/18 04:36:09;;;;;;;3.08;1.33;;;;;;;;;;4947785;28;20406;-83
2021/12/18 04:38:35;;;;;;;4.00;2.00;;;;;;;;;;4933354;29;20106;-83
2021/12/18 04:41:04;;;;;;;3.17;1.30;;;;;;;;;;4949103;28;20062;-82
2021/12/18 04:43:30;;;;;;;4.13;1.55;;;;;;;;;;4949674;28;20045;-82
2021/12/18 04:45:56;;;;;;;3.42;1.70;;;;;;;;;;4937604;28;20795;-83
2021/12/18 04:48:22;;;;;;;4.57;1.70;;;;;;;;;;4931303;29;20051;-85
2021/12/18 04:50:48;;;;;;;3.63;1.70;;;;;;;;;;4950036;29;20526;-81
2021/12/18 04:53:14;;;;;;;2.65;1.77;;;;;;;;;;4932101;28;20061;-82
2021/12/18 04:55:40;;;;;;;4.38;2.20;;;;;;;;;;4947398;29;20055;-82
2021/12/18 04:58:06;;;;;;;4.72;2.30;;;;;;;;;;4949949;28;20126;-82
2021/12/18 05:00:40;;;;;;;7.90;2.97;;;;;;;;;;4947458;28;20035;-84
2021/12/18 05:03:08;;;;;;;6.60;2.77;;;;;;;;;;4947693;28;20430;-82
2021/12/18 05:05:35;;;;;;;9.32;3.50;;;;;;;;;;4947404;28;20062;-82
2021/12/18 05:08:01;;;;;;;9.63;3.50;;;;;;;;;;4933591;29;20090;-83
2021/12/18 05:10:28;;;;;;;7.55;3.17;;;;;;;;;;4946450;28;20496;-83
2021/12/18 05:12:54;;;;;;;13.00;3.60;;;;;;;;;;4977822;28;20085;-81
2021/12/18 05:15:20;;;;;;;11.00;4.63;;;;;;;;;;4947043;28;20509;-83
2021/12/18 05:17:46;;;;;;;11.35;4.50;;;;;;;;;;4946760;28;20162;-83
2021/12/18 05:20:12;;;;;;;11.50;4.53;;;;;;;;;;4947545;28;20039;-84
2021/12/18 05:22:38;;;;;;;13.98;4.47;;;;;;;;;;4947993;28;20043;-83
2021/12/18 05:25:05;;;;;;;15.65;4.45;;;;;;;;;;4948004;28;20097;-82
2021/12/18 05:27:31;;;;;;;11.68;4.32;;;;;;;;;;4949558;28;20035;-83
2021/12/18 05:29:57;;;;;;;17.02;5.07;;;;;;;;;;4947581;28;20629;-83
2021/12/18 05:32:23;;;;;;;251.57;23.08;;;;;;;;;;4946983;28;20078;-83
2021/12/18 05:34:50;;;;;;;155.15;15.55;;;;;;;;;;4979272;28;20082;-82
2021/12/18 05:37:31;;;;;;;16.08;5.55;;;;;;;;;;4946517;28;20397;-83
2021/12/18 05:39:57;;;;;;;17.50;5.80;;;;;;;;;;4947525;28;20135;-83
2021/12/18 05:42:23;;;;;;;283.63;19.13;;;;;;;;;;4948068;28;20050;-82
2021/12/18 05:44:49;;;;;;;187.75;12.85;;;;;;;;;;4977852;28;20078;-83
2021/12/18 05:47:16;;;;;;;14.85;5.70;;;;;;;;;;4946568;28;20126;-82
2021/12/18 05:49:42;;;;;;;22.60;6.13;;;;;;;;;;4946486;28;20090;-82
2021/12/18 05:52:08;;;;;;;41.55;7.63;;;;;;;;;;4947195;28;20034;-83
2021/12/18 05:54:36;;;;;;;25.92;6.88;;;;;;;;;;4946016;28;20472;-82
2021/12/18 05:57:03;;;;;;;19.67;6.93;;;;;;;;;;4930567;29;20051;-82
2021/12/18 05:59:29;;;;;;;20.63;7.15;;;;;;;;;;4947677;28;20475;-82
2021/12/18 06:01:55;;;;;;;21.27;6.88;;;;;;;;;;4946898;29;20047;-83
2021/12/18 06:04:22;;;;;;;21.77;7.25;;;;;;;;;;4947249;29;20040;-83
2021/12/18 06:06:48;;;;;;;19.42;6.75;;;;;;;;;;4959021;28;20059;-83
2021/12/18 06:09:14;;;;;;;20.83;6.30;;;;;;;;;;4938635;29;20785;-83
2021/12/18 06:11:41;;;;;;;21.50;6.60;;;;;;;;;;4915488;29;20062;-83
2021/12/18 06:14:07;;;;;;;27.73;6.50;;;;;;;;;;4935223;29;20440;-83
2021/12/18 06:16:33;;;;;;;22.50;5.85;;;;;;;;;;4918229;29;20507;-84
2021/12/18 06:19:00;;;;;;;20.40;5.50;;;;;;;;;;4933012;29;20044;-83
2021/12/18 06:21:26;;;;;;;22.27;5.63;;;;;;;;;;4927937;29;20036;-82
2021/12/18 06:23:53;;;;;;;18.95;5.95;;;;;;;;;;4937643;29;20118;-83
2021/12/18 06:26:20;;;;;;;18.67;5.03;;;;;;;;;;4947628;28;20170;-82
2021/12/18 06:28:46;;;;;;;15.93;4.90;;;;;;;;;;4925862;29;20052;-83
2021/12/18 06:31:12;;;;;;;14.05;3.65;;;;;;;;;;4931293;29;20086;-83
2021/12/18 06:33:39;;;;;;;12.02;3.55;;;;;;;;;;4941567;28;20051;-82
2021/12/18 06:36:05;;;;;;;15.82;3.78;;;;;;;;;;4912165;29;20044;-83
2021/12/18 06:38:31;;;;;;;14.18;3.08;;;;;;;;;;4941449;28;20134;-83
2021/12/18 06:40:57;;;;;;;10.00;2.95;;;;;;;;;;4930252;29;20032;-82
2021/12/18 06:43:23;;;;;;;10.98;2.92;;;;;;;;;;4927827;29;20138;-83
2021/12/18 06:45:49;;;;;;;9.77;3.17;;;;;;;;;;4910023;29;20052;-82
2021/12/18 06:48:15;;;;;;;10.38;2.75;;;;;;;;;;4928263;29;20039;-83
2021/12/18 06:50:41;;;;;;;7.78;2.90;;;;;;;;;;4925821;29;20051;-82
2021/12/18 06:53:07;;;;;;;9.57;2.55;;;;;;;;;;4944524;28;20040;-83
2021/12/18 06:55:35;;;;;;;17.45;2.80;;;;;;;;;;4942300;28;20047;-82
2021/12/18 06:58:01;;;;;;;15.25;3.53;;;;;;;;;;4942156;28;20131;-82
2021/12/18 07:00:27;;;;;;;20.40;3.08;;;;;;;;;;4914174;29;20062;-83
2021/12/18 07:02:54;;;;;;;14.32;3.80;;;;;;;;;;4946092;28;20072;-83
2021/12/18 07:05:20;;;;;;;7.65;3.45;;;;;;;;;;4912784;29;20449;-84
2021/12/18 07:07:46;;;;;;;14.65;3.47;;;;;;;;;;4931463;29;20094;-83
2021/12/18 07:10:13;;;;;;;10.77;3.58;;;;;;;;;;4922651;29;20052;-83
2021/12/18 07:12:39;;;;;;;13.75;3.10;;;;;;;;;;4913570;29;20131;-83
2021/12/18 07:15:06;;;;;;;14.05;3.20;;;;;;;;;;4912698;29;20043;-82
2021/12/18 07:17:32;;;;;;;8.75;2.90;;;;;;;;;;4924675;29;20044;-83
2021/12/18 07:19:58;;;;;;;15.35;3.08;;;;;;;;;;4921407;29;20054;-83
2021/12/18 07:22:24;;;;;;;14.93;3.63;;;;;;;;;;4911310;29;20062;-82
2021/12/18 07:24:50;;;;;;;10.30;3.40;;;;;;;;;;4911087;29;20784;-82
2021/12/18 07:27:16;;;;;;;11.65;4.20;;;;;;;;;;4927502;29;20074;-83
2021/12/18 07:29:42;;;;;;;19.52;5.07;;;;;;;;;;4909606;29;20087;-83
2021/12/18 07:32:09;;;;;;;16.60;4.10;;;;;;;;;;4909247;29;20385;-83
2021/12/18 07:34:35;;;;;;;9.60;3.63;;;;;;;;;;4930420;29;20594;-83
2021/12/18 07:37:01;;;;;;;14.85;4.03;;;;;;;;;;4908822;29;20138;-82
2021/12/18 07:39:27;;;;;;;11.45;4.22;;;;;;;;;;4908855;29;20048;-83
2021/12/18 07:41:53;;;;;;;16.05;4.75;;;;;;;;;;4892684;29;20567;-82
2021/12/18 07:44:19;;;;;;;16.55;4.10;;;;;;;;;;4910899;29;20051;-81
2021/12/18 07:46:45;;;;;;;13.23;4.57;;;;;;;;;;4926138;29;20043;-84
2021/12/18 07:49:11;;;;;;;10.55;3.17;;;;;;;;;;4892870;29;20056;-82
2021/12/18 07:51:37;;;;;;;13.73;3.72;;;;;;;;;;4927259;29;20754;-83
2021/12/18 07:54:04;;;;;;;8.77;2.83;;;;;;;;;;4908307;29;20174;-82
2021/12/18 07:56:31;;;;;;;15.60;2.70;;;;;;;;;;4926549;29;20054;-83
2021/12/18 07:58:57;;;;;;;11.23;2.88;;;;;;;;;;4931440;29;20476;-84
2021/12/18 08:01:23;;;;;;;12.35;3.47;;;;;;;;;;4910625;29;20110;-84
2021/12/18 08:03:49;;;;;;;12.43;2.45;;;;;;;;;;4926155;29;20036;-84
2021/12/18 08:06:16;;;;;;;14.23;2.95;;;;;;;;;;4910866;29;20466;-83
2021/12/18 08:08:42;;;;;;;19.35;2.80;;;;;;;;;;4920640;29;20116;-83
2021/12/18 08:11:08;;;;;;;10.55;2.42;;;;;;;;;;4959068;28;20075;-83
2021/12/18 08:13:34;;;;;;;10.80;2.90;;;;;;;;;;4944307;28;20113;-83
2021/12/18 08:16:00;;;;;;;10.73;2.35;;;;;;;;;;4930793;28;20097;-82
2021/12/18 08:18:26;;;;;;;18.15;4.38;;;;;;;;;;4946663;28;20515;-83
2021/12/18 08:20:52;;;;;;;13.30;2.88;;;;;;;;;;4942555;29;20502;-83
2021/12/18 08:23:18;;;;;;;14.98;3.10;;;;;;;;;;4951979;28;20126;-83
2021/12/18 08:25:45;;;;;;;18.38;3.80;;;;;;;;;;4951467;29;20035;-83
2021/12/18 08:28:11;;;;;;;16.50;3.58;;;;;;;;;;4934680;29;20042;-82
2021/12/18 08:30:38;;;;;;;18.15;3.45;;;;;;;;;;4951101;28;20059;-82
2021/12/18 08:33:04;;;;;;;19.95;3.55;;;;;;;;;;4934200;29;20043;-83
2021/12/18 08:35:31;;;;;;;19.92;3.25;;;;;;;;;;4951299;29;20411;-83
2021/12/18 08:37:57;;;;;;;19.17;3.47;;;;;;;;;;4933656;29;20466;-83
2021/12/18 08:40:24;;;;;;;8.95;2.25;;;;;;;;;;4934517;29;20051;-83
2021/12/18 08:42:50;;;;;;;13.52;2.05;;;;;;;;;;4932747;29;20164;-83
2021/12/18 08:45:16;;;;;;;11.02;2.20;;;;;;;;;;4934868;29;20063;-84
2021/12/18 08:47:43;;;;;;;12.43;2.20;;;;;;;;;;4951158;29;20050;-83
2021/12/18 08:50:10;;;;;;;13.32;2.50;;;;;;;;;;4951429;29;20051;-83
2021/12/18 08:52:36;;;;;;;10.43;2.72;;;;;;;;;;4951148;29;20085;-84
2021/12/18 08:55:03;;;;;;;17.05;2.78;;;;;;;;;;4950695;29;20111;-83
2021/12/18 08:57:29;;;;;;;12.13;2.72;;;;;;;;;;4951626;29;20035;-83
2021/12/18 08:59:55;;;;;;;11.40;2.33;;;;;;;;;;4932961;29;20134;-83
2021/12/18 09:02:21;;;;;;;14.60;2.30;;;;;;;;;;4933866;29;20113;-82
2021/12/18 09:04:48;;;;;;;10.32;2.22;;;;;;;;;;4950820;28;20051;-82
2021/12/18 09:07:14;;;;;;;10.43;3.10;;;;;;;;;;4951309;29;20047;-82
2021/12/18 09:09:40;;;;;;;13.82;2.60;;;;;;;;;;4963266;28;20138;-82
2021/12/18 09:12:07;;;;;;;12.52;2.38;;;;;;;;;;4933749;29;20039;-83
2021/12/18 09:14:34;;;;;;;10.68;2.45;;;;;;;;;;4950631;29;20079;-82
2021/12/18 09:17:00;;;;;;;12.15;2.72;;;;;;;;;;4933354;29;20035;-83
2021/12/18 09:19:26;;;;;;;13.85;2.78;;;;;;;;;;4917777;29;20055;-82
2021/12/18 09:21:52;;;;;;;11.27;2.50;;;;;;;;;;4947048;29;20115;-82
2021/12/18 09:24:20;;;;;;;6.82;2.10;;;;;;;;;;4962508;28;20047;-82
2021/12/18 09:26:46;;;;;;;19.15;2.33;;;;;;;;;;4947490;29;20089;-81
2021/12/18 09:29:12;;;;;;;12.90;2.15;;;;;;;;;;4950313;28;20074;-82
2021/12/18 09:31:38;;;;;;;12.20;2.65;;;;;;;;;;4950021;29;20046;-82
2021/12/18 09:34:04;;;;;;;9.82;2.17;;;;;;;;;;4933204;29;20168;-83
2021/12/18 09:36:30;;;;;;;15.63;3.05;;;;;;;;;;4932808;29;20716;-83
2021/12/18 09:38:58;;;;;;;10.45;2.30;;;;;;;;;;4949424;29;20082;-82
2021/12/18 09:41:24;;;;;;;18.17;3.20;;;;;;;;;;4950572;29;20703;-83
2021/12/18 09:43:50;;;;;;;11.55;2.58;;;;;;;;;;4949150;29;20044;-83
2021/12/18 09:46:17;;;;;;;9.68;2.70;;;;;;;;;;4950448;28;20089;-82
2021/12/18 09:48:44;;;;;;;13.90;2.20;;;;;;;;;;4949040;29;20094;-84
2021/12/18 09:51:14;;;;;;;14.00;3.78;;;;;;;;;;4899751;29;20047;-83
2021/12/18 09:53:41;;;;;;;10.48;2.90;;;;;;;;;;4932661;29;20831;-82
2021/12/18 09:56:07;;;;;;;9.77;2.35;;;;;;;;;;4932297;29;20087;-83
2021/12/18 09:58:33;;;;;;;8.80;2.25;;;;;;;;;;4933507;29;20441;-83
2021/12/18 10:00:59;;;;;;;14.65;2.90;;;;;;;;;;4948049;28;20035;-83
2021/12/18 10:03:42;;;;;;;9.98;2.25;;;;;;;;;;4949591;29;20047;-83
2021/12/18 10:06:27;;;;;;;11.23;2.38;;;;;;;;;;4947393;28;20126;-83
2021/12/18 10:08:53;;;;;;;;;;;;;;;;;;4941649;28;20052;-83
2021/12/18 10:11:19;;;;;;;8.85;2.42;;;;;;;;;;4916848;29;19986;-82
2021/12/18 10:13:53;;;;;;;10.55;2.65;;;;;;;;;;4913951;29;20191;-84
2021/12/18 10:16:20;;;;;;;11.93;2.55;;;;;;;;;;4926551;29;20058;-84
2021/12/18 10:18:46;;;;;;;19.80;3.92;;;;;;;;;;4929105;29;20036;-83
2021/12/18 10:21:16;;;;;;;15.93;3.13;;;;;;;;;;4915285;29;20047;-83
2021/12/18 10:23:43;;;;;;;14.80;3.15;;;;;;;;;;4912905;29;20570;-84
2021/12/18 10:26:28;;;;;;;20.80;3.22;;;;;;;;;;4930842;29;20070;-84
2021/12/18 10:28:54;;;;;;;15.07;3.55;;;;;;;;;;4930144;29;20044;-84
2021/12/18 10:31:39;;;;;;;14.95;2.72;;;;;;;;;;4930190;29;20054;-83
2021/12/18 10:34:25;;;;;;;15.90;3.25;;;;;;;;;;4927710;29;20055;-83
2021/12/18 10:37:10;;;;;;;12.65;3.40;;;;;;;;;;4931149;29;20158;-83
2021/12/18 10:39:38;;;;;;;8.93;2.85;;;;;;;;;;4912869;29;20048;-83
2021/12/18 10:42:21;;;;;;;16.23;3.60;;;;;;;;;;4913611;29;20485;-84
2021/12/18 10:44:57;;;;;;;12.43;2.20;;;;;;;;;;4913326;29;20086;-85
2021/12/18 10:47:23;;;;;;;11.63;2.50;;;;;;;;;;4913364;29;20509;-83
2021/12/18 10:49:49;;;;;;;13.82;2.85;;;;;;;;;;4914001;29;20055;-83
2021/12/18 10:52:15;;;;;;;9.65;2.42;;;;;;;;;;4913457;29;20047;-83
2021/12/18 10:54:41;;;;;;;14.93;2.38;;;;;;;;;;4913905;29;20048;-84
2021/12/18 10:57:19;;;;;;;11.32;2.30;;;;;;;;;;4929850;29;20464;-83
2021/12/18 10:59:46;;;;;;;13.98;2.83;;;;;;;;;;4931369;29;20154;-84
2021/12/18 11:02:14;;;;;;;13.18;2.80;;;;;;;;;;4929801;29;20032;-84
2021/12/18 11:04:41;;;;;;;9.88;2.50;;;;;;;;;;4930234;29;20032;-85
2021/12/18 11:07:18;;;;;;;12.20;2.85;;;;;;;;;;4930110;29;20063;-84
2021/12/18 11:09:59;;;;;;;13.13;2.30;;;;;;;;;;4948811;29;20901;-84
2021/12/18 11:15:10;;;;;;;12.48;2.83;;;;;;;;;;4947906;28;20050;-82
2021/12/18 11:17:37;;;;;;;17.50;3.08;;;;;;;;;;4965371;28;20051;-82
2021/12/18 11:20:04;;;;;;;15.23;3.15;;;;;;;;;;4940207;28;20055;-82
2021/12/18 11:22:30;;;;;;;15.60;2.97;;;;;;;;;;4947347;28;20078;-81
2021/12/18 11:25:03;;;;;;;13.55;3.20;;;;;;;;;;4948974;28;20054;-82
2021/12/18 11:27:31;;;;;;;17.80;2.97;;;;;;;;;;4948194;29;20054;-81
2021/12/18 11:30:00;;;;;;;11.52;2.80;;;;;;;;;;4949719;28;20051;-81
2021/12/18 11:32:28;;;;;;;8.70;2.45;;;;;;;;;;4948805;28;20122;-82
2021/12/18 11:34:56;;;;;;;11.77;2.75;;;;;;;;;;4931338;29;20412;-82
2021/12/18 11:37:23;;;;;;;12.63;3.10;;;;;;;;;;4931332;29;20492;-82
2021/12/18 11:39:50;;;;;;;15.30;3.33;;;;;;;;;;4931649;29;20050;-81
2021/12/18 11:42:17;;;;;;;15.05;3.25;;;;;;;;;;4949150;29;20047;-84
2021/12/18 11:44:44;;;;;;;15.27;3.67;;;;;;;;;;4948086;29;20047;-82
2021/12/18 11:47:25;;;;;;;14.18;3.88;;;;;;;;;;4949433;29;20090;-82
2021/12/18 11:49:58;;;;;;;14.80;2.83;;;;;;;;;;4948945;29;20043;-84
2021/12/18 11:52:25;;;;;;;17.08;2.78;;;;;;;;;;4948837;28;20122;-83
2021/12/18 11:55:00;;;;;;;13.15;3.30;;;;;;;;;;4935725;29;20047;-83
2021/12/18 11:57:41;;;;;;;13.55;3.00;;;;;;;;;;4952228;29;20428;-83
2021/12/18 12:00:33;;;;;;;22.58;3.35;;;;;;;;;;4953786;29;20110;-83
2021/12/18 12:03:01;;;;;;;12.55;2.97;;;;;;;;;;4919440;29;20874;-83
2021/12/18 12:05:33;;;;;;;12.70;3.00;;;;;;;;;;4935584;29;20058;-83
2021/12/18 12:08:18;;;;;;;16.23;3.13;;;;;;;;;;4937404;28;20051;-83
2021/12/18 12:11:03;;;;;;;13.50;2.83;;;;;;;;;;4951883;28;20138;-82
2021/12/18 12:13:48;;;;;;;13.32;3.70;;;;;;;;;;4951514;28;20063;-82
2021/12/18 12:16:14;;;;;;;10.20;2.72;;;;;;;;;;4951519;28;20082;-83
2021/12/18 12:18:59;;;;;;;11.55;3.10;;;;;;;;;;4982670;28;20470;-82
2021/12/18 12:21:51;;;;;;;12.02;4.22;;;;;;;;;;4951333;28;20511;-83
2021/12/18 12:24:18;;;;;;;7.90;2.75;;;;;;;;;;4948220;28;20499;-83
2021/12/18 12:26:45;;;;;;;14.73;3.08;;;;;;;;;;4951155;29;20039;-83
2021/12/18 12:29:13;;;;;;;10.10;3.10;;;;;;;;;;4951806;28;20503;-83
2021/12/18 12:31:52;;;;;;;12.63;2.78;;;;;;;;;;4951885;28;20055;-82
2021/12/18 12:34:25;;;;;;;12.80;3.08;;;;;;;;;;4952596;29;20146;-83
2021/12/18 12:36:58;;;;;;;17.30;2.90;;;;;;;;;;4951366;29;20058;-82
2021/12/18 12:39:25;;;;;;;12.63;3.53;;;;;;;;;;4953594;28;20163;-82
2021/12/18 12:41:52;;;;;;;14.77;3.42;;;;;;;;;;4957450;28;20127;-84
2021/12/18 12:44:34;;;;;;;14.00;3.08;;;;;;;;;;4954910;28;20074;-82
2021/12/18 12:47:13;;;;;;;11.77;3.47;;;;;;;;;;4980888;28;20047;-82
2021/12/18 12:49:40;;;;;;;15.75;3.38;;;;;;;;;;4963700;28;20038;-83
2021/12/18 12:52:08;;;;;;;14.77;3.63;;;;;;;;;;4952960;28;20098;-82
2021/12/18 12:54:53;;;;;;;19.63;4.00;;;;;;;;;;4956636;28;20070;-83
2021/12/18 12:57:27;;;;;;;11.60;3.92;;;;;;;;;;4940269;28;20043;-83
2021/12/18 12:59:53;;;;;;;;;;;;;;;;;;4952281;29;20059;-82
2021/12/18 13:02:20;;;;;;;14.85;3.80;;;;;;;;;;4982058;28;19929;-83
2021/12/18 13:04:47;;;;;;;18.42;3.80;;;;;;;;;;4949935;28;20071;-83
2021/12/18 13:07:13;;;;;;;11.75;3.60;;;;;;;;;;4964237;28;20094;-82
2021/12/18 13:09:46;;;;;;;18.38;3.90;;;;;;;;;;4951434;28;20045;-83
2021/12/18 13:12:12;;;;;;;14.68;4.10;;;;;;;;;;4964294;28;20045;-83
2021/12/18 13:14:43;;;;;;;18.15;4.32;;;;;;;;;;4926709;28;20295;-82
2021/12/18 13:17:22;;;;;;;18.60;3.80;;;;;;;;;;4953550;28;20098;-83
2021/12/18 13:20:02;;;;;;;20.45;4.30;;;;;;;;;;4950647;28;20043;-83
2021/12/18 13:22:32;;;;;;;14.40;3.92;;;;;;;;;;4958123;28;20099;-83
2021/12/18 13:25:11;;;;;;;13.55;3.67;;;;;;;;;;4954618;28;20074;-83
2021/12/18 13:27:39;;;;;;;15.38;3.67;;;;;;;;;;4955357;28;20062;-83
2021/12/18 13:30:16;;;;;;;18.30;4.28;;;;;;;;;;4935743;28;20062;-83
2021/12/18 13:33:00;;;;;;;25.30;3.50;;;;;;;;;;4957840;28;20058;-82
2021/12/18 13:35:27;;;;;;;22.85;4.57;;;;;;;;;;4936359;28;20408;-83
2021/12/18 13:38:07;;;;;;;13.07;3.28;;;;;;;;;;4955118;28;20047;-83
2021/12/18 13:40:37;;;;;;;14.80;3.60;;;;;;;;;;4966871;28;20134;-83
2021/12/18 13:43:07;;;;;;;15.30;3.67;;;;;;;;;;4935084;28;20039;-83
2021/12/18 13:45:34;;;;;;;14.80;4.10;;;;;;;;;;4933027;28;20039;-82
2021/12/18 13:48:04;;;;;;;14.77;4.35;;;;;;;;;;4951736;28;20049;-82
2021/12/18 13:50:31;;;;;;;17.40;3.60;;;;;;;;;;4963558;28;20488;-82
2021/12/18 13:52:59;;;;;;;10.38;2.72;;;;;;;;;;4937548;28;20043;-82
2021/12/18 13:55:30;;;;;;;12.27;2.60;;;;;;;;;;4955892;28;20038;-83
2021/12/18 13:58:19;;;;;;;8.88;2.53;;;;;;;;;;4944036;28;20039;-82
2021/12/18 14:00:45;;;;;;;11.80;2.75;;;;;;;;;;4935911;28;20447;-83
2021/12/18 14:03:22;;;;;;;8.57;2.90;;;;;;;;;;4933720;28;20101;-83
2021/12/18 14:05:48;;;;;;;15.82;3.38;;;;;;;;;;4963662;28;20039;-82
2021/12/18 14:08:15;;;;;;;11.63;3.13;;;;;;;;;;4953452;28;20528;-81
2021/12/18 14:10:42;;;;;;;13.93;3.45;;;;;;;;;;4956891;28;20046;-82
2021/12/18 14:13:08;;;;;;;9.75;2.78;;;;;;;;;;4931106;29;20047;-82
2021/12/18 14:15:34;;;;;;;13.93;3.60;;;;;;;;;;4930305;29;20036;-82
2021/12/18 14:18:00;;;;;;;15.65;3.33;;;;;;;;;;4947456;28;20107;-82
2021/12/18 14:20:27;;;;;;;14.95;2.75;;;;;;;;;;4928812;29;20495;-83
2021/12/18 14:22:58;;;;;;;14.32;2.83;;;;;;;;;;4948468;29;20047;-83
2021/12/18 14:25:25;;;;;;;11.55;3.17;;;;;;;;;;4940861;29;20091;-81
2021/12/18 14:27:52;;;;;;;13.52;3.55;;;;;;;;;;4931259;29;20134;-81
2021/12/18 14:30:19;;;;;;;13.48;3.92;;;;;;;;;;4930731;28;20122;-81
2021/12/18 14:32:46;;;;;;;13.05;3.00;;;;;;;;;;4928854;29;20098;-82
2021/12/18 14:35:14;;;;;;;11.88;3.03;;;;;;;;;;4948935;29;20078;-83
2021/12/18 14:37:56;;;;;;;14.77;2.92;;;;;;;;;;4926135;29;20055;-81
2021/12/18 14:40:24;;;;;;;10.77;2.90;;;;;;;;;;4932528;29;20043;-82
2021/12/18 14:42:58;;;;;;;13.63;3.72;;;;;;;;;;4930666;29;20522;-82
2021/12/18 14:45:27;;;;;;;12.57;4.00;;;;;;;;;;4930805;29;20047;-82
2021/12/18 14:47:54;;;;;;;13.55;3.90;;;;;;;;;;4954903;28;20046;-82
2021/12/18 14:50:28;;;;;;;16.63;4.53;;;;;;;;;;4930147;29;20059;-82
2021/12/18 14:53:12;;;;;;;13.63;3.77;;;;;;;;;;4915429;29;20775;-82
2021/12/18 14:55:38;;;;;;;;;;;;;;;;;;4942380;29;20139;-83
2021/12/18 14:58:06;;;;;;;12.25;3.50;;;;;;;;;;4937655;29;20005;-82
2021/12/18 15:00:35;;;;;;;11.65;3.28;;;;;;;;;;4929498;29;20043;-81
2021/12/18 15:03:04;;;;;;;16.30;4.00;;;;;;;;;;4930977;29;20179;-82
2021/12/18 15:05:47;;;;;;;16.80;3.83;;;;;;;;;;4929903;29;20054;-82
2021/12/18 15:08:19;;;;;;;14.63;3.40;;;;;;;;;;4935196;28;20061;-86
2021/12/18 15:10:49;;;;;;;13.82;3.55;;;;;;;;;;4955357;28;20105;-84
2021/12/18 15:13:17;;;;;;;12.65;3.85;;;;;;;;;;4961608;28;20058;-85
2021/12/18 15:15:43;;;;;;;17.75;4.95;;;;;;;;;;4959866;28;20061;-86
2021/12/18 15:18:10;;;;;;;13.10;4.13;;;;;;;;;;4929540;28;20034;-85
2021/12/18 15:20:39;;;;;;;11.93;4.18;;;;;;;;;;4975347;28;20070;-86
2021/12/18 15:23:05;;;;;;;16.75;3.85;;;;;;;;;;4975466;28;20047;-85